Flag for USA

Past Weather in 41°29'44"N, 87°02'50"W, USA — Yesterday and Last 2 Weeks

Currently: 76 °F. Scattered clouds. (Weather station: Lansing Municipal Airport, USA). See more current weather

Past Weather in 41°29'44"N, 87°02'50"W — Graph

°F

41°29'44"N, 87°02'50"W Temperature Yesterday

Maximum temperature yesterday: 83 °F (at 3:55 pm)
Minimum temperature yesterday: 67 °F (at 4:15 am)
Average temperature yesterday: 75 °F

High & Low Weather Summary for the Past Weeks

 TemperatureHumidityPressure
High89 °F (Jul 13, 4:35 pm)100% (Jul 4, 4:15 am)30.19 "Hg (Jul 4, 4:15 am)
Low60 °F (Jul 7, 5:15 am)42% (Jul 2, 4:15 pm)29.67 "Hg (Jul 15, 9:35 pm)
Average74 °F83%29.95 "Hg
* Reported Jul 2 2:15 pm — Jul 17 2:15 pm, 41°29'44"N, 87°02'50"W. Weather by CustomWeather, © 2024

Note: Actual official high and low records may vary slightly from our data, if they occured in-between our weather recording intervals... More about our weather records

41°29'44"N, 87°02'50"W Weather History for the Previous 24 Hours

Scroll right to see more
 ConditionsComfort  
Time TempWeatherWind HumidityBarometerVisibility
2:15 pm
Wed, Jul 17
80 °FSunny.9 mph57%29.98 "Hg10 mi
1:55 pm80 °FScattered clouds.6 mph62%29.98 "Hg10 mi
1:35 pm80 °FScattered clouds.9 mph58%29.98 "Hg10 mi
1:15 pm80 °FScattered clouds.10 mph58%29.97 "Hg10 mi
12:55 pm80 °FScattered clouds.10 mph54%29.97 "Hg10 mi
12:35 pm80 °FScattered clouds.9 mph52%29.97 "Hg10 mi
12:15 pm80 °FScattered clouds.8 mph56%29.97 "Hg10 mi
11:55 am80 °FScattered clouds.8 mph62%29.96 "Hg10 mi
11:35 am80 °FBroken clouds.6 mph64%29.96 "Hg10 mi
11:15 am79 °FPartly sunny.5 mph65%29.96 "Hg10 mi
10:55 am78 °FBroken clouds.5 mph67%29.96 "Hg10 mi
10:35 am79 °FScattered clouds.6 mph66%29.96 "Hg10 mi
9:55 am79 °FSunny.7 mph63%29.95 "Hg10 mi
9:15 am77 °FSunny.7 mph68%29.94 "Hg10 mi
8:55 am76 °FSunny.7 mph72%29.94 "Hg10 mi
8:15 am75 °FSunny.8 mph77%29.94 "Hg10 mi
7:55 am75 °FSunny.6 mph88%29.94 "Hg10 mi
7:35 am74 °FSunny.7 mph91%29.93 "Hg10 mi
6:55 am72 °FScattered clouds.3 mph100%29.93 "Hg7 mi
6:35 am70 °FFog.No wind100%29.92 "Hg4 mi
5:55 am69 °FFog.No wind100%29.91 "Hg2 mi
5:35 am69 °FFog.No wind100%29.91 "Hg3 mi
5:15 am70 °FFog.No wind100%29.91 "Hg4 mi
4:55 am69 °FFog.No wind100%29.90 "Hg4 mi
4:35 am69 °FFog.No wind100%29.89 "Hg4 mi
4:15 am70 °FFog.No wind100%29.88 "Hg5 mi
3:35 am71 °FPassing clouds.No wind100%29.87 "Hg7 mi
2:55 am71 °FMostly cloudy.3 mph100%29.87 "Hg7 mi
2:35 am71 °FPassing clouds.No wind100%29.87 "Hg7 mi
2:15 am71 °FPassing clouds.No wind100%29.87 "Hg7 mi
1:55 am72 °FPartly cloudy.No wind100%29.87 "Hg7 mi
1:35 am72 °FLight rain. Passing clouds.No wind100%29.88 "Hg10 mi
1:15 am72 °FPassing clouds.No wind100%29.88 "Hg10 mi
12:55 am72 °FPassing clouds.No wind100%29.88 "Hg10 mi
12:35 am71 °FPassing clouds.No wind100%29.88 "Hg10 mi
12:15 am72 °FPassing clouds.No wind100%29.89 "Hg10 mi
11:55 pm
Tue, Jul 16
72 °FPassing clouds.No wind100%29.90 "Hg10 mi
11:15 pm73 °FOvercast.No wind100%29.89 "Hg10 mi
10:55 pm72 °FPassing clouds.No wind100%29.88 "Hg10 mi
10:35 pm73 °FPassing clouds.No wind100%29.88 "Hg10 mi
10:15 pm73 °FPassing clouds.No wind100%29.87 "Hg10 mi
9:55 pm73 °FClear.6 mph98%29.86 "Hg10 mi
9:35 pm73 °FClear.5 mph98%29.86 "Hg10 mi
8:55 pm74 °FClear.3 mph95%29.84 "Hg10 mi
8:35 pm75 °FClear.6 mph92%29.84 "Hg10 mi
8:15 pm76 °FClear.6 mph90%29.84 "Hg10 mi
7:35 pm79 °FPassing clouds.8 mph77%29.83 "Hg10 mi
7:15 pm80 °FScattered clouds.6 mph87%29.82 "Hg10 mi
6:55 pm80 °FScattered clouds.6 mph91%29.82 "Hg10 mi
6:35 pm80 °FScattered clouds.9 mph90%29.82 "Hg10 mi
6:15 pm80 °FBroken clouds.9 mph89%29.82 "Hg10 mi
5:55 pm80 °FBroken clouds.10 mph87%29.83 "Hg10 mi
5:35 pm81 °FMostly cloudy.9 mph85%29.82 "Hg10 mi
5:15 pm82 °FBroken clouds.10 mph83%29.82 "Hg10 mi
4:55 pm83 °FScattered clouds.13 mph81%29.82 "Hg10 mi
4:35 pm83 °FBroken clouds.12 mph81%29.82 "Hg10 mi
4:15 pm83 °FBroken clouds.14 mph81%29.82 "Hg10 mi
Weather by CustomWeather, © 2024

See weather overview